sensor_id;sensor_type;location;lat;lon;timestamp;P1;durP1;ratioP1;P2;durP2;ratioP2
16804;SDS011;8520;50.102;20.010;2024-02-21T00:02:22;24.93;;;23.73;;
16804;SDS011;8520;50.102;20.010;2024-02-21T00:04:50;24.30;;;23.00;;
16804;SDS011;8520;50.102;20.010;2024-02-21T00:07:18;24.30;;;22.93;;
16804;SDS011;8520;50.102;20.010;2024-02-21T00:09:47;25.37;;;23.80;;
16804;SDS011;8520;50.102;20.010;2024-02-21T00:12:15;24.53;;;23.07;;
16804;SDS011;8520;50.102;20.010;2024-02-21T00:14:45;23.90;;;22.80;;
16804;SDS011;8520;50.102;20.010;2024-02-21T00:17:13;24.80;;;23.37;;
16804;SDS011;8520;50.102;20.010;2024-02-21T00:19:41;24.07;;;22.80;;
16804;SDS011;8520;50.102;20.010;2024-02-21T00:22:09;23.67;;;22.47;;
16804;SDS011;8520;50.102;20.010;2024-02-21T00:24:37;22.87;;;21.77;;
16804;SDS011;8520;50.102;20.010;2024-02-21T00:27:05;22.33;;;21.17;;
16804;SDS011;8520;50.102;20.010;2024-02-21T00:29:33;22.20;;;20.90;;
16804;SDS011;8520;50.102;20.010;2024-02-21T00:32:03;22.47;;;21.07;;
16804;SDS011;8520;50.102;20.010;2024-02-21T00:34:32;23.73;;;22.43;;
16804;SDS011;8520;50.102;20.010;2024-02-21T00:37:00;24.10;;;22.80;;
16804;SDS011;8520;50.102;20.010;2024-02-21T00:39:28;23.90;;;22.73;;
16804;SDS011;8520;50.102;20.010;2024-02-21T00:41:56;25.83;;;24.30;;
16804;SDS011;8520;50.102;20.010;2024-02-21T00:44:24;26.23;;;24.80;;
16804;SDS011;8520;50.102;20.010;2024-02-21T00:46:52;27.83;;;26.13;;
16804;SDS011;8520;50.102;20.010;2024-02-21T00:49:22;29.10;;;27.33;;
16804;SDS011;8520;50.102;20.010;2024-02-21T00:51:50;29.07;;;27.40;;
16804;SDS011;8520;50.102;20.010;2024-02-21T00:54:18;30.17;;;28.37;;
16804;SDS011;8520;50.102;20.010;2024-02-21T00:56:46;31.40;;;29.60;;
16804;SDS011;8520;50.102;20.010;2024-02-21T00:59:14;33.10;;;31.10;;
16804;SDS011;8520;50.102;20.010;2024-02-21T01:01:42;34.70;;;32.60;;
16804;SDS011;8520;50.102;20.010;2024-02-21T01:04:10;35.93;;;33.73;;
16804;SDS011;8520;50.102;20.010;2024-02-21T01:06:40;36.97;;;34.63;;
16804;SDS011;8520;50.102;20.010;2024-02-21T01:09:10;37.67;;;35.30;;
16804;SDS011;8520;50.102;20.010;2024-02-21T01:11:38;39.47;;;36.90;;
16804;SDS011;8520;50.102;20.010;2024-02-21T01:14:07;40.17;;;37.87;;
16804;SDS011;8520;50.102;20.010;2024-02-21T01:16:35;41.90;;;39.30;;
16804;SDS011;8520;50.102;20.010;2024-02-21T01:19:02;42.33;;;39.80;;
16804;SDS011;8520;50.102;20.010;2024-02-21T01:21:31;43.47;;;40.77;;
16804;SDS011;8520;50.102;20.010;2024-02-21T01:24:01;45.27;;;42.47;;
16804;SDS011;8520;50.102;20.010;2024-02-21T01:26:29;45.37;;;42.57;;
16804;SDS011;8520;50.102;20.010;2024-02-21T01:28:57;46.77;;;43.77;;
16804;SDS011;8520;50.102;20.010;2024-02-21T01:31:25;49.27;;;45.63;;
16804;SDS011;8520;50.102;20.010;2024-02-21T01:33:53;49.50;;;46.07;;
16804;SDS011;8520;50.102;20.010;2024-02-21T01:36:22;49.47;;;46.33;;
16804;SDS011;8520;50.102;20.010;2024-02-21T01:38:50;50.87;;;47.57;;
16804;SDS011;8520;50.102;20.010;2024-02-21T01:41:19;51.13;;;47.83;;
16804;SDS011;8520;50.102;20.010;2024-02-21T01:43:47;51.33;;;47.90;;
16804;SDS011;8520;50.102;20.010;2024-02-21T01:46:15;51.70;;;48.30;;
16804;SDS011;8520;50.102;20.010;2024-02-21T01:48:43;51.77;;;48.40;;
16804;SDS011;8520;50.102;20.010;2024-02-21T01:51:13;53.90;;;50.20;;
16804;SDS011;8520;50.102;20.010;2024-02-21T01:53:42;56.80;;;52.80;;
16804;SDS011;8520;50.102;20.010;2024-02-21T01:56:11;55.63;;;51.77;;
16804;SDS011;8520;50.102;20.010;2024-02-21T01:58:42;57.37;;;53.17;;
16804;SDS011;8520;50.102;20.010;2024-02-21T02:01:10;58.47;;;54.40;;
16804;SDS011;8520;50.102;20.010;2024-02-21T02:03:38;59.43;;;55.43;;
16804;SDS011;8520;50.102;20.010;2024-02-21T02:06:07;60.37;;;56.27;;
16804;SDS011;8520;50.102;20.010;2024-02-21T02:08:35;61.73;;;57.57;;
16804;SDS011;8520;50.102;20.010;2024-02-21T02:11:03;64.20;;;59.60;;
16804;SDS011;8520;50.102;20.010;2024-02-21T02:13:31;63.57;;;59.03;;
16804;SDS011;8520;50.102;20.010;2024-02-21T02:16:01;65.37;;;60.77;;
16804;SDS011;8520;50.102;20.010;2024-02-21T02:18:30;65.57;;;60.87;;
16804;SDS011;8520;50.102;20.010;2024-02-21T02:20:58;66.00;;;61.27;;
16804;SDS011;8520;50.102;20.010;2024-02-21T02:23:28;67.23;;;62.33;;
16804;SDS011;8520;50.102;20.010;2024-02-21T02:25:58;64.53;;;60.13;;
16804;SDS011;8520;50.102;20.010;2024-02-21T02:28:28;66.17;;;61.47;;
16804;SDS011;8520;50.102;20.010;2024-02-21T02:30:56;65.17;;;60.43;;
16804;SDS011;8520;50.102;20.010;2024-02-21T02:33:24;65.43;;;61.10;;
16804;SDS011;8520;50.102;20.010;2024-02-21T02:35:52;65.30;;;60.70;;
16804;SDS011;8520;50.102;20.010;2024-02-21T02:38:20;65.13;;;60.60;;
16804;SDS011;8520;50.102;20.010;2024-02-21T02:40:49;64.50;;;59.87;;
16804;SDS011;8520;50.102;20.010;2024-02-21T02:43:17;65.53;;;61.13;;
16804;SDS011;8520;50.102;20.010;2024-02-21T02:45:45;63.77;;;59.37;;
16804;SDS011;8520;50.102;20.010;2024-02-21T02:48:13;63.87;;;59.50;;
16804;SDS011;8520;50.102;20.010;2024-02-21T02:50:42;64.67;;;59.80;;
16804;SDS011;8520;50.102;20.010;2024-02-21T02:53:09;63.23;;;59.17;;
16804;SDS011;8520;50.102;20.010;2024-02-21T02:55:38;63.00;;;58.77;;
16804;SDS011;8520;50.102;20.010;2024-02-21T02:58:07;64.10;;;59.50;;
16804;SDS011;8520;50.102;20.010;2024-02-21T03:00:35;64.33;;;59.83;;
16804;SDS011;8520;50.102;20.010;2024-02-21T03:03:03;63.53;;;58.97;;
16804;SDS011;8520;50.102;20.010;2024-02-21T03:05:31;63.10;;;58.83;;
16804;SDS011;8520;50.102;20.010;2024-02-21T03:08:00;62.67;;;58.43;;
16804;SDS011;8520;50.102;20.010;2024-02-21T03:10:28;63.33;;;59.13;;
16804;SDS011;8520;50.102;20.010;2024-02-21T03:12:56;64.53;;;60.23;;
16804;SDS011;8520;50.102;20.010;2024-02-21T03:15:26;64.13;;;59.87;;
16804;SDS011;8520;50.102;20.010;2024-02-21T03:17:54;64.40;;;60.00;;
16804;SDS011;8520;50.102;20.010;2024-02-21T03:20:23;64.73;;;60.33;;
16804;SDS011;8520;50.102;20.010;2024-02-21T03:22:50;64.87;;;60.27;;
16804;SDS011;8520;50.102;20.010;2024-02-21T03:25:19;64.77;;;60.63;;
16804;SDS011;8520;50.102;20.010;2024-02-21T03:27:47;65.17;;;60.60;;
16804;SDS011;8520;50.102;20.010;2024-02-21T03:30:15;65.73;;;61.13;;
16804;SDS011;8520;50.102;20.010;2024-02-21T03:32:45;64.97;;;60.77;;
16804;SDS011;8520;50.102;20.010;2024-02-21T03:35:13;66.00;;;61.50;;
16804;SDS011;8520;50.102;20.010;2024-02-21T03:37:41;65.63;;;61.13;;
16804;SDS011;8520;50.102;20.010;2024-02-21T03:40:09;65.10;;;60.70;;
16804;SDS011;8520;50.102;20.010;2024-02-21T03:42:38;64.30;;;59.67;;
16804;SDS011;8520;50.102;20.010;2024-02-21T03:45:06;65.70;;;60.87;;
16804;SDS011;8520;50.102;20.010;2024-02-21T03:47:34;64.23;;;60.03;;
16804;SDS011;8520;50.102;20.010;2024-02-21T03:50:04;64.90;;;60.20;;
16804;SDS011;8520;50.102;20.010;2024-02-21T03:52:32;64.37;;;59.70;;
16804;SDS011;8520;50.102;20.010;2024-02-21T03:55:01;63.90;;;59.60;;
16804;SDS011;8520;50.102;20.010;2024-02-21T03:57:29;63.40;;;59.13;;
16804;SDS011;8520;50.102;20.010;2024-02-21T03:59:57;64.00;;;59.67;;
16804;SDS011;8520;50.102;20.010;2024-02-21T04:02:25;63.67;;;59.47;;
16804;SDS011;8520;50.102;20.010;2024-02-21T04:04:53;64.80;;;60.10;;
16804;SDS011;8520;50.102;20.010;2024-02-21T04:07:22;64.10;;;59.70;;
16804;SDS011;8520;50.102;20.010;2024-02-21T04:09:50;65.20;;;60.37;;
16804;SDS011;8520;50.102;20.010;2024-02-21T04:12:18;65.50;;;60.77;;
16804;SDS011;8520;50.102;20.010;2024-02-21T04:14:47;64.37;;;59.63;;
16804;SDS011;8520;50.102;20.010;2024-02-21T04:17:15;65.10;;;60.27;;
16804;SDS011;8520;50.102;20.010;2024-02-21T04:19:43;64.17;;;59.70;;
16804;SDS011;8520;50.102;20.010;2024-02-21T04:22:12;63.50;;;59.10;;
16804;SDS011;8520;50.102;20.010;2024-02-21T04:24:41;64.67;;;60.17;;
16804;SDS011;8520;50.102;20.010;2024-02-21T04:27:09;64.70;;;60.13;;
16804;SDS011;8520;50.102;20.010;2024-02-21T04:29:37;65.30;;;60.47;;
16804;SDS011;8520;50.102;20.010;2024-02-21T04:32:06;65.43;;;60.40;;
16804;SDS011;8520;50.102;20.010;2024-02-21T04:34:35;65.97;;;61.00;;
16804;SDS011;8520;50.102;20.010;2024-02-21T04:37:03;65.07;;;60.27;;
16804;SDS011;8520;50.102;20.010;2024-02-21T04:39:32;65.63;;;60.70;;
16804;SDS011;8520;50.102;20.010;2024-02-21T04:42:01;64.53;;;59.77;;
16804;SDS011;8520;50.102;20.010;2024-02-21T04:44:29;65.23;;;60.37;;
16804;SDS011;8520;50.102;20.010;2024-02-21T04:46:57;64.17;;;59.27;;
16804;SDS011;8520;50.102;20.010;2024-02-21T04:49:25;66.27;;;61.03;;
16804;SDS011;8520;50.102;20.010;2024-02-21T04:51:53;63.43;;;58.97;;
16804;SDS011;8520;50.102;20.010;2024-02-21T04:54:23;64.07;;;59.30;;
16804;SDS011;8520;50.102;20.010;2024-02-21T04:57:03;63.77;;;58.97;;
16804;SDS011;8520;50.102;20.010;2024-02-21T04:59:40;66.40;;;61.00;;
16804;SDS011;8520;50.102;20.010;2024-02-21T05:02:13;64.20;;;59.83;;
16804;SDS011;8520;50.102;20.010;2024-02-21T05:04:50;67.40;;;62.37;;
16804;SDS011;8520;50.102;20.010;2024-02-21T05:07:18;65.40;;;60.80;;
16804;SDS011;8520;50.102;20.010;2024-02-21T05:09:46;64.00;;;59.60;;
16804;SDS011;8520;50.102;20.010;2024-02-21T05:12:16;62.90;;;58.33;;
16804;SDS011;8520;50.102;20.010;2024-02-21T05:14:44;61.63;;;57.40;;
16804;SDS011;8520;50.102;20.010;2024-02-21T05:17:12;62.70;;;58.27;;
16804;SDS011;8520;50.102;20.010;2024-02-21T05:19:40;62.13;;;57.63;;
16804;SDS011;8520;50.102;20.010;2024-02-21T05:22:08;62.23;;;57.67;;
16804;SDS011;8520;50.102;20.010;2024-02-21T05:24:36;60.60;;;56.20;;
16804;SDS011;8520;50.102;20.010;2024-02-21T05:27:07;61.20;;;56.90;;
16804;SDS011;8520;50.102;20.010;2024-02-21T05:29:36;59.80;;;55.70;;
16804;SDS011;8520;50.102;20.010;2024-02-21T05:32:04;59.03;;;54.80;;
16804;SDS011;8520;50.102;20.010;2024-02-21T05:34:32;58.40;;;54.27;;
16804;SDS011;8520;50.102;20.010;2024-02-21T05:37:00;58.70;;;54.80;;
16804;SDS011;8520;50.102;20.010;2024-02-21T05:39:28;58.43;;;54.00;;
16804;SDS011;8520;50.102;20.010;2024-02-21T05:41:57;58.67;;;54.07;;
16804;SDS011;8520;50.102;20.010;2024-02-21T05:44:24;58.87;;;54.53;;
16804;SDS011;8520;50.102;20.010;2024-02-21T05:46:55;58.93;;;54.57;;
16804;SDS011;8520;50.102;20.010;2024-02-21T05:49:23;58.77;;;54.30;;
16804;SDS011;8520;50.102;20.010;2024-02-21T05:51:51;58.93;;;54.70;;
16804;SDS011;8520;50.102;20.010;2024-02-21T05:54:19;60.27;;;55.97;;
16804;SDS011;8520;50.102;20.010;2024-02-21T05:56:47;60.60;;;56.40;;
16804;SDS011;8520;50.102;20.010;2024-02-21T05:59:15;61.50;;;57.13;;
16804;SDS011;8520;50.102;20.010;2024-02-21T06:01:43;62.10;;;57.37;;
16804;SDS011;8520;50.102;20.010;2024-02-21T06:04:13;62.47;;;58.17;;
16804;SDS011;8520;50.102;20.010;2024-02-21T06:06:41;64.53;;;59.90;;
16804;SDS011;8520;50.102;20.010;2024-02-21T06:09:09;69.37;;;64.10;;
16804;SDS011;8520;50.102;20.010;2024-02-21T06:11:37;68.40;;;63.70;;
16804;SDS011;8520;50.102;20.010;2024-02-21T06:14:05;68.20;;;63.70;;
16804;SDS011;8520;50.102;20.010;2024-02-21T06:16:33;65.20;;;60.93;;
16804;SDS011;8520;50.102;20.010;2024-02-21T06:19:01;65.83;;;61.33;;
16804;SDS011;8520;50.102;20.010;2024-02-21T06:21:36;62.90;;;58.63;;
16804;SDS011;8520;50.102;20.010;2024-02-21T06:24:04;64.20;;;59.87;;
16804;SDS011;8520;50.102;20.010;2024-02-21T06:26:32;64.20;;;59.70;;
16804;SDS011;8520;50.102;20.010;2024-02-21T06:29:00;64.23;;;59.83;;
16804;SDS011;8520;50.102;20.010;2024-02-21T06:31:29;63.40;;;59.20;;
16804;SDS011;8520;50.102;20.010;2024-02-21T06:33:58;63.40;;;59.20;;
16804;SDS011;8520;50.102;20.010;2024-02-21T06:36:26;62.07;;;58.07;;
16804;SDS011;8520;50.102;20.010;2024-02-21T06:38:55;61.53;;;57.50;;
16804;SDS011;8520;50.102;20.010;2024-02-21T06:41:24;61.07;;;56.87;;
16804;SDS011;8520;50.102;20.010;2024-02-21T06:43:52;59.77;;;55.77;;
16804;SDS011;8520;50.102;20.010;2024-02-21T06:46:23;59.70;;;55.77;;
16804;SDS011;8520;50.102;20.010;2024-02-21T06:48:52;59.50;;;55.40;;
16804;SDS011;8520;50.102;20.010;2024-02-21T06:51:20;59.60;;;55.50;;
16804;SDS011;8520;50.102;20.010;2024-02-21T06:53:48;58.30;;;54.57;;
16804;SDS011;8520;50.102;20.010;2024-02-21T06:56:18;59.93;;;55.77;;
16804;SDS011;8520;50.102;20.010;2024-02-21T06:58:46;58.07;;;54.40;;
16804;SDS011;8520;50.102;20.010;2024-02-21T07:01:14;56.40;;;52.80;;
16804;SDS011;8520;50.102;20.010;2024-02-21T07:03:42;55.07;;;51.47;;
16804;SDS011;8520;50.102;20.010;2024-02-21T07:06:10;52.77;;;49.37;;
16804;SDS011;8520;50.102;20.010;2024-02-21T07:08:39;51.50;;;48.07;;
16804;SDS011;8520;50.102;20.010;2024-02-21T07:11:07;50.10;;;46.73;;
16804;SDS011;8520;50.102;20.010;2024-02-21T07:13:36;49.83;;;46.50;;
16804;SDS011;8520;50.102;20.010;2024-02-21T07:16:05;48.50;;;45.30;;
16804;SDS011;8520;50.102;20.010;2024-02-21T07:18:33;48.03;;;44.93;;
16804;SDS011;8520;50.102;20.010;2024-02-21T07:21:01;47.43;;;44.30;;
16804;SDS011;8520;50.102;20.010;2024-02-21T07:23:29;47.37;;;44.20;;
16804;SDS011;8520;50.102;20.010;2024-02-21T07:25:57;48.27;;;44.97;;
16804;SDS011;8520;50.102;20.010;2024-02-21T07:28:26;46.17;;;43.17;;
16804;SDS011;8520;50.102;20.010;2024-02-21T07:30:55;44.57;;;41.57;;
16804;SDS011;8520;50.102;20.010;2024-02-21T07:33:23;43.83;;;40.63;;
16804;SDS011;8520;50.102;20.010;2024-02-21T07:35:51;42.63;;;39.57;;
16804;SDS011;8520;50.102;20.010;2024-02-21T07:38:19;40.03;;;37.23;;
16804;SDS011;8520;50.102;20.010;2024-02-21T07:40:47;40.10;;;37.40;;
16804;SDS011;8520;50.102;20.010;2024-02-21T07:43:15;39.57;;;36.87;;
16804;SDS011;8520;50.102;20.010;2024-02-21T07:45:43;35.87;;;33.57;;
16804;SDS011;8520;50.102;20.010;2024-02-21T07:48:13;35.07;;;32.80;;
16804;SDS011;8520;50.102;20.010;2024-02-21T07:50:41;36.03;;;33.43;;
16804;SDS011;8520;50.102;20.010;2024-02-21T07:53:09;35.47;;;32.87;;
16804;SDS011;8520;50.102;20.010;2024-02-21T07:55:37;33.63;;;31.13;;
16804;SDS011;8520;50.102;20.010;2024-02-21T07:58:05;31.00;;;29.10;;
16804;SDS011;8520;50.102;20.010;2024-02-21T08:00:34;30.70;;;28.70;;
16804;SDS011;8520;50.102;20.010;2024-02-21T08:03:02;28.83;;;26.83;;
16804;SDS011;8520;50.102;20.010;2024-02-21T08:05:33;27.70;;;25.80;;
16804;SDS011;8520;50.102;20.010;2024-02-21T08:08:02;27.17;;;25.57;;
16804;SDS011;8520;50.102;20.010;2024-02-21T08:10:30;26.83;;;25.00;;
16804;SDS011;8520;50.102;20.010;2024-02-21T08:12:58;24.17;;;22.57;;
16804;SDS011;8520;50.102;20.010;2024-02-21T08:15:27;23.53;;;21.73;;
16804;SDS011;8520;50.102;20.010;2024-02-21T08:17:56;21.07;;;19.67;;
16804;SDS011;8520;50.102;20.010;2024-02-21T08:20:28;19.77;;;18.27;;
16804;SDS011;8520;50.102;20.010;2024-02-21T08:22:57;18.30;;;16.80;;
16804;SDS011;8520;50.102;20.010;2024-02-21T08:25:25;16.13;;;14.83;;
16804;SDS011;8520;50.102;20.010;2024-02-21T08:27:55;16.20;;;14.77;;
16804;SDS011;8520;50.102;20.010;2024-02-21T08:30:24;15.00;;;13.63;;
16804;SDS011;8520;50.102;20.010;2024-02-21T08:32:52;13.63;;;12.53;;
16804;SDS011;8520;50.102;20.010;2024-02-21T08:35:21;13.13;;;12.10;;
16804;SDS011;8520;50.102;20.010;2024-02-21T08:37:50;14.27;;;12.97;;
16804;SDS011;8520;50.102;20.010;2024-02-21T08:40:19;13.83;;;12.47;;
16804;SDS011;8520;50.102;20.010;2024-02-21T08:42:48;12.20;;;11.20;;
16804;SDS011;8520;50.102;20.010;2024-02-21T08:45:16;13.07;;;11.87;;
16804;SDS011;8520;50.102;20.010;2024-02-21T08:47:44;13.77;;;12.63;;
16804;SDS011;8520;50.102;20.010;2024-02-21T08:50:13;14.67;;;13.37;;
16804;SDS011;8520;50.102;20.010;2024-02-21T08:52:53;14.80;;;13.40;;
16804;SDS011;8520;50.102;20.010;2024-02-21T08:55:23;16.83;;;14.33;;
16804;SDS011;8520;50.102;20.010;2024-02-21T08:57:51;15.50;;;14.13;;
16804;SDS011;8520;50.102;20.010;2024-02-21T09:00:19;15.30;;;13.73;;
16804;SDS011;8520;50.102;20.010;2024-02-21T09:02:54;14.60;;;13.33;;
16804;SDS011;8520;50.102;20.010;2024-02-21T09:05:23;14.17;;;12.97;;
16804;SDS011;8520;50.102;20.010;2024-02-21T09:07:52;14.63;;;13.30;;
16804;SDS011;8520;50.102;20.010;2024-02-21T09:10:20;13.83;;;12.57;;
16804;SDS011;8520;50.102;20.010;2024-02-21T09:12:50;13.83;;;12.37;;
16804;SDS011;8520;50.102;20.010;2024-02-21T09:15:17;12.70;;;11.33;;
16804;SDS011;8520;50.102;20.010;2024-02-21T09:17:45;11.87;;;10.67;;
16804;SDS011;8520;50.102;20.010;2024-02-21T09:20:13;13.03;;;11.10;;
16804;SDS011;8520;50.102;20.010;2024-02-21T09:22:43;10.30;;;9.47;;
16804;SDS011;8520;50.102;20.010;2024-02-21T09:25:12;10.83;;;9.93;;
16804;SDS011;8520;50.102;20.010;2024-02-21T09:27:40;10.47;;;9.60;;
16804;SDS011;8520;50.102;20.010;2024-02-21T09:30:09;12.20;;;11.00;;
16804;SDS011;8520;50.102;20.010;2024-02-21T09:32:38;11.40;;;10.33;;
16804;SDS011;8520;50.102;20.010;2024-02-21T09:35:06;10.77;;;9.67;;
16804;SDS011;8520;50.102;20.010;2024-02-21T09:37:35;11.20;;;10.10;;
16804;SDS011;8520;50.102;20.010;2024-02-21T09:40:05;10.17;;;9.13;;
16804;SDS011;8520;50.102;20.010;2024-02-21T09:42:35;10.23;;;9.33;;
16804;SDS011;8520;50.102;20.010;2024-02-21T09:45:05;8.90;;;8.10;;
16804;SDS011;8520;50.102;20.010;2024-02-21T09:47:40;8.93;;;8.13;;
16804;SDS011;8520;50.102;20.010;2024-02-21T09:50:08;8.53;;;7.70;;
16804;SDS011;8520;50.102;20.010;2024-02-21T09:52:37;8.60;;;7.80;;
16804;SDS011;8520;50.102;20.010;2024-02-21T09:55:05;9.43;;;8.00;;
16804;SDS011;8520;50.102;20.010;2024-02-21T09:57:34;9.93;;;8.10;;
16804;SDS011;8520;50.102;20.010;2024-02-21T10:00:03;9.10;;;7.67;;
16804;SDS011;8520;50.102;20.010;2024-02-21T10:02:40;7.97;;;7.27;;
16804;SDS011;8520;50.102;20.010;2024-02-21T10:05:08;8.00;;;7.00;;
16804;SDS011;8520;50.102;20.010;2024-02-21T10:07:36;7.73;;;6.93;;
16804;SDS011;8520;50.102;20.010;2024-02-21T10:10:05;8.00;;;7.10;;
16804;SDS011;8520;50.102;20.010;2024-02-21T10:12:33;8.03;;;6.63;;
16804;SDS011;8520;50.102;20.010;2024-02-21T10:15:02;8.67;;;6.87;;
16804;SDS011;8520;50.102;20.010;2024-02-21T10:17:30;7.27;;;6.53;;
16804;SDS011;8520;50.102;20.010;2024-02-21T10:20:07;9.47;;;6.50;;
16804;SDS011;8520;50.102;20.010;2024-02-21T10:22:37;7.60;;;6.87;;
16804;SDS011;8520;50.102;20.010;2024-02-21T10:25:07;7.60;;;6.90;;
16804;SDS011;8520;50.102;20.010;2024-02-21T10:27:36;8.10;;;7.27;;
16804;SDS011;8520;50.102;20.010;2024-02-21T10:30:04;9.37;;;6.90;;
16804;SDS011;8520;50.102;20.010;2024-02-21T10:32:36;7.07;;;6.47;;
16804;SDS011;8520;50.102;20.010;2024-02-21T10:35:04;6.30;;;5.70;;
16804;SDS011;8520;50.102;20.010;2024-02-21T10:37:34;8.40;;;5.80;;
16804;SDS011;8520;50.102;20.010;2024-02-21T10:40:02;6.97;;;5.53;;
16804;SDS011;8520;50.102;20.010;2024-02-21T10:42:31;6.50;;;5.90;;
16804;SDS011;8520;50.102;20.010;2024-02-21T10:45:02;6.07;;;5.47;;
16804;SDS011;8520;50.102;20.010;2024-02-21T10:47:31;8.83;;;6.70;;
16804;SDS011;8520;50.102;20.010;2024-02-21T10:50:02;7.70;;;5.97;;
16804;SDS011;8520;50.102;20.010;2024-02-21T10:52:36;5.90;;;5.40;;
16804;SDS011;8520;50.102;20.010;2024-02-21T10:55:13;6.67;;;6.07;;
16804;SDS011;8520;50.102;20.010;2024-02-21T10:57:44;8.27;;;6.07;;
16804;SDS011;8520;50.102;20.010;2024-02-21T11:00:14;8.07;;;5.97;;
16804;SDS011;8520;50.102;20.010;2024-02-21T11:02:42;6.37;;;5.70;;
16804;SDS011;8520;50.102;20.010;2024-02-21T11:05:10;6.63;;;6.00;;
16804;SDS011;8520;50.102;20.010;2024-02-21T11:07:40;5.93;;;5.33;;
16804;SDS011;8520;50.102;20.010;2024-02-21T11:10:20;6.43;;;5.83;;
16804;SDS011;8520;50.102;20.010;2024-02-21T11:12:48;6.23;;;5.50;;
16804;SDS011;8520;50.102;20.010;2024-02-21T11:15:16;7.40;;;5.93;;
16804;SDS011;8520;50.102;20.010;2024-02-21T11:17:53;6.23;;;5.70;;
16804;SDS011;8520;50.102;20.010;2024-02-21T11:20:33;6.67;;;5.47;;
16804;SDS011;8520;50.102;20.010;2024-02-21T11:23:03;7.63;;;5.77;;
16804;SDS011;8520;50.102;20.010;2024-02-21T11:25:32;7.07;;;6.37;;
16804;SDS011;8520;50.102;20.010;2024-02-21T11:28:01;7.63;;;6.20;;
16804;SDS011;8520;50.102;20.010;2024-02-21T11:30:30;7.27;;;5.70;;
16804;SDS011;8520;50.102;20.010;2024-02-21T11:33:00;5.43;;;4.93;;
16804;SDS011;8520;50.102;20.010;2024-02-21T11:35:30;5.90;;;5.33;;
16804;SDS011;8520;50.102;20.010;2024-02-21T11:38:10;6.03;;;5.43;;
16804;SDS011;8520;50.102;20.010;2024-02-21T11:40:43;7.33;;;6.57;;
16804;SDS011;8520;50.102;20.010;2024-02-21T11:43:11;7.57;;;6.10;;
16804;SDS011;8520;50.102;20.010;2024-02-21T11:45:39;6.90;;;6.10;;
16804;SDS011;8520;50.102;20.010;2024-02-21T11:48:07;6.37;;;5.67;;
16804;SDS011;8520;50.102;20.010;2024-02-21T11:50:35;6.70;;;6.03;;
16804;SDS011;8520;50.102;20.010;2024-02-21T11:53:03;6.37;;;5.63;;
16804;SDS011;8520;50.102;20.010;2024-02-21T11:55:33;6.80;;;6.10;;
16804;SDS011;8520;50.102;20.010;2024-02-21T11:58:01;7.73;;;6.23;;
16804;SDS011;8520;50.102;20.010;2024-02-21T12:00:29;8.10;;;6.47;;
16804;SDS011;8520;50.102;20.010;2024-02-21T12:02:58;6.73;;;6.07;;
16804;SDS011;8520;50.102;20.010;2024-02-21T12:05:29;7.60;;;6.80;;
16804;SDS011;8520;50.102;20.010;2024-02-21T12:07:57;8.53;;;6.70;;
16804;SDS011;8520;50.102;20.010;2024-02-21T12:10:26;7.97;;;6.80;;
16804;SDS011;8520;50.102;20.010;2024-02-21T12:13:05;8.43;;;7.23;;
16804;SDS011;8520;50.102;20.010;2024-02-21T12:15:34;7.03;;;6.33;;
16804;SDS011;8520;50.102;20.010;2024-02-21T12:18:02;7.63;;;6.93;;
16804;SDS011;8520;50.102;20.010;2024-02-21T12:20:31;7.37;;;6.67;;
16804;SDS011;8520;50.102;20.010;2024-02-21T12:23:00;7.07;;;6.47;;
16804;SDS011;8520;50.102;20.010;2024-02-21T12:25:28;7.90;;;6.90;;
16804;SDS011;8520;50.102;20.010;2024-02-21T12:27:56;6.17;;;5.63;;
16804;SDS011;8520;50.102;20.010;2024-02-21T12:30:27;7.83;;;5.80;;
16804;SDS011;8520;50.102;20.010;2024-02-21T12:32:57;6.50;;;5.90;;
16804;SDS011;8520;50.102;20.010;2024-02-21T12:35:28;8.67;;;5.63;;
16804;SDS011;8520;50.102;20.010;2024-02-21T12:37:58;6.10;;;5.47;;
16804;SDS011;8520;50.102;20.010;2024-02-21T12:40:28;6.93;;;6.00;;
16804;SDS011;8520;50.102;20.010;2024-02-21T12:42:59;8.07;;;5.60;;
16804;SDS011;8520;50.102;20.010;2024-02-21T12:45:31;6.77;;;5.00;;
16804;SDS011;8520;50.102;20.010;2024-02-21T12:48:00;7.40;;;5.63;;
16804;SDS011;8520;50.102;20.010;2024-02-21T12:50:28;6.33;;;5.50;;
16804;SDS011;8520;50.102;20.010;2024-02-21T12:52:57;6.13;;;5.40;;
16804;SDS011;8520;50.102;20.010;2024-02-21T12:55:26;6.57;;;5.97;;
16804;SDS011;8520;50.102;20.010;2024-02-21T12:57:54;7.20;;;5.90;;
16804;SDS011;8520;50.102;20.010;2024-02-21T13:00:23;8.00;;;5.83;;
16804;SDS011;8520;50.102;20.010;2024-02-21T13:02:55;6.13;;;5.53;;
16804;SDS011;8520;50.102;20.010;2024-02-21T13:05:23;5.43;;;4.93;;
16804;SDS011;8520;50.102;20.010;2024-02-21T13:07:51;7.03;;;5.70;;
16804;SDS011;8520;50.102;20.010;2024-02-21T13:10:19;6.07;;;5.57;;
16804;SDS011;8520;50.102;20.010;2024-02-21T13:12:48;6.83;;;5.60;;
16804;SDS011;8520;50.102;20.010;2024-02-21T13:15:16;7.23;;;5.60;;
16804;SDS011;8520;50.102;20.010;2024-02-21T13:17:44;7.10;;;6.40;;
16804;SDS011;8520;50.102;20.010;2024-02-21T13:20:14;6.87;;;5.53;;
16804;SDS011;8520;50.102;20.010;2024-02-21T13:22:42;6.50;;;5.80;;
16804;SDS011;8520;50.102;20.010;2024-02-21T13:25:10;6.57;;;5.97;;
16804;SDS011;8520;50.102;20.010;2024-02-21T13:27:42;6.20;;;5.60;;
16804;SDS011;8520;50.102;20.010;2024-02-21T13:30:10;7.97;;;6.93;;
16804;SDS011;8520;50.102;20.010;2024-02-21T13:32:38;7.70;;;5.77;;
16804;SDS011;8520;50.102;20.010;2024-02-21T13:35:06;7.20;;;6.10;;
16804;SDS011;8520;50.102;20.010;2024-02-21T13:37:37;6.47;;;5.87;;
16804;SDS011;8520;50.102;20.010;2024-02-21T13:40:05;6.97;;;6.33;;
16804;SDS011;8520;50.102;20.010;2024-02-21T13:42:33;6.57;;;5.87;;
16804;SDS011;8520;50.102;20.010;2024-02-21T13:45:01;8.00;;;6.67;;
16804;SDS011;8520;50.102;20.010;2024-02-21T13:47:29;7.50;;;6.80;;
16804;SDS011;8520;50.102;20.010;2024-02-21T13:49:57;7.40;;;6.80;;
16804;SDS011;8520;50.102;20.010;2024-02-21T13:52:25;7.60;;;6.50;;
16804;SDS011;8520;50.102;20.010;2024-02-21T13:54:55;9.97;;;8.17;;
16804;SDS011;8520;50.102;20.010;2024-02-21T13:57:23;8.90;;;8.00;;
16804;SDS011;8520;50.102;20.010;2024-02-21T13:59:50;7.70;;;6.97;;
16804;SDS011;8520;50.102;20.010;2024-02-21T14:02:18;8.63;;;7.70;;
16804;SDS011;8520;50.102;20.010;2024-02-21T14:04:46;8.37;;;7.63;;
16804;SDS011;8520;50.102;20.010;2024-02-21T14:07:14;9.00;;;8.10;;
16804;SDS011;8520;50.102;20.010;2024-02-21T14:09:44;9.20;;;7.90;;
16804;SDS011;8520;50.102;20.010;2024-02-21T14:12:13;8.93;;;8.13;;
16804;SDS011;8520;50.102;20.010;2024-02-21T14:14:43;9.50;;;8.60;;
16804;SDS011;8520;50.102;20.010;2024-02-21T14:17:11;8.20;;;7.50;;
16804;SDS011;8520;50.102;20.010;2024-02-21T14:19:39;9.30;;;8.40;;
16804;SDS011;8520;50.102;20.010;2024-02-21T14:22:08;8.67;;;7.83;;
16804;SDS011;8520;50.102;20.010;2024-02-21T14:24:37;8.60;;;7.80;;
16804;SDS011;8520;50.102;20.010;2024-02-21T14:27:05;10.63;;;8.80;;
16804;SDS011;8520;50.102;20.010;2024-02-21T14:29:35;10.10;;;9.10;;
16804;SDS011;8520;50.102;20.010;2024-02-21T14:32:04;8.93;;;8.10;;
16804;SDS011;8520;50.102;20.010;2024-02-21T14:34:34;10.10;;;9.20;;
16804;SDS011;8520;50.102;20.010;2024-02-21T14:37:02;10.23;;;9.33;;
16804;SDS011;8520;50.102;20.010;2024-02-21T14:39:30;10.13;;;9.03;;
16804;SDS011;8520;50.102;20.010;2024-02-21T14:42:01;11.17;;;10.07;;